AirNav   Duncan Aviation - Near you to keep you flying
 
 1436 users online  

44CL Balsdon Airport
Grimes, California, USA

GOING TO GRIMES?


FAA INFORMATION EFFECTIVE 02 DECEMBER 2021

Location

FAA Identifier: 44CL
Lat/Long: 39-02-52.2750N 121-57-01.4000W
39-02.871250N 121-57.023333W
39.0478542,-121.9503889
(estimated)
Elevation: 35 ft. / 11 m (estimated)
From city: 3 miles WSW of GRIMES, CA
Time zone: UTC -8 (UTC -7 during Daylight Saving Time)
Zip code: 95912

Airport Operations

Airport use: Private use. Permission required prior to landing
Activation date: 04/2016
Control tower: no
ARTCC: OAKLAND CENTER
FSS: RANCHO MURIETA FLIGHT SERVICE STATION
Attendance: MON-FRI 0700-1600
Wind indicator: yes
Segmented circle: no

Airport Communications

WX ASOS at MYV (18 nm E): 118.475 (530-742-0695)

Nearby radio navigation aids

VOR radial/distance  VOR name  Freq  Var
ILAr093/3.8WILLIAMS VORTAC114.4018E
MYVr244/17.8MARYSVILLE VOR/DME110.8016E
MCCr295/34.2MC CLELLAN VOR/DME109.2017E

Airport Services

Runway Information

Runway 12/30

Dimensions: 2323 x 30 ft. / 708 x 9 m
Surface: asphalt
RUNWAY 12  RUNWAY 30
Latitude: 39-03.018000N39-02.724500N
Longitude: 121-57.180833W121-56.865833W
Elevation: 42.0 ft.33.0 ft.
Traffic pattern: leftleft
Touchdown point: yes, no lightsyes, no lights

Airport Ownership and Management from official FAA records

Ownership: Privately-owned
Owner: STRAIN BASIN LAND
P.O. BOX 807
ARBUCKLE, CA 95912
Phone 530-476-3286
Manager: DERICK STRAIN
P.O. BOX 807
ARBUCKLE, CA 95912
Phone 530-476-3286

Additional Remarks

FOR CD CTC OAKLAND ARTCC AT 510-745-3380.

Instrument Procedures

There are no published instrument procedures at 44CL.

Some nearby airports with instrument procedures:

O08 - Colusa County Airport (8 nm N)
KMYV - Yuba County Airport (18 nm E)
O41 - Watts-Woodland Airport (23 nm S)
KBAB - Beale Air Force Base (25 nm E)
KSMF - Sacramento International Airport (27 nm SE)
 
Loc | Ops | Rwys | IFR | FBO | Links
Com | Nav | Svcs | Stats | Notes

Sonoma Jet Center
 
Aerial photo
No photo
 
Airport distance calculator
Flying to Balsdon Airport? Find the distance to fly.

From to 44CL

Sunrise and sunset
Times for 06-Dec-2021
 Local
(UTC-8)
 Zulu
(UTC)
Morning civil twilight06:4414:44
Sunrise07:1415:14
Sunset16:4400:44
Evening civil twilight17:1401:14

Current date and time
Zulu (UTC)  06-Dec-2021 18:50:59
Local (UTC-8)  06-Dec-2021 10:50:59
 
METAR
KMYV 
18nm E 
061801Z AUTO 00000KT 3SM BR BKN005 OVC012 09/07 A3020 RMK AO2 T00890067
KBAB 
25nm E 
061658Z 25003KT 2 1/4SM BR OVC006 08/02 A3019 RMK AO2A PRESRR SLP227 T00820022 $
KSMF 
27nm SE 
061840Z 00000KT 2SM BR OVC010 09/07 A3019 RMK AO2 SFC VIS 4 T00890072
KDWA 
28nm S 
061835Z AUTO 00000KT 2 1/2SM BR OVC005 09/09 A3021 RMK AO2
KLHM 
29nm E 
061835Z AUTO 00000KT 2 1/2SM OVC004 08/08 A3019 RMK AO1
KOVE 
31nm NE 
061833Z AUTO 16003KT 1 1/2SM BR BKN003 OVC008 09/08 A3019 RMK AO2 CIG 002V007 T00940083
KEDU 
32nm S 
061835Z AUTO 17004KT 3SM OVC008 09/09 A3019 RMK AO1
KMCC 
34nm SE 
061835Z AUTO 00000KT 6SM BR OVC010 09/07 A3019 RMK AO2
TAF
KBAB 
25nm E 
061100Z 0611/0717 15006KT 6000 BR OVC012 QNH3014INS BECMG 0616/0617 21006KT 8000 BR BKN016 OVC150 QNH3010INS BECMG 0620/0621 VRB06KT 6000 -RA BR BKN012 OVC120 QNH3007INS BECMG 0623/0624 VRB06KT 6000 BR SCT080 BKN110 QNH3000INS TEMPO 0704/0711 -SHRA OVC100 BECMG 0711/0712 33006KT 9999 NSW BKN120 QNH2998INS BECMG 0713/0714 33009KT 9999 SKC QNH3000INS TX11/0620Z TN06/0614Z
KSMF 
27nm SE 
061736Z 0618/0718 VRB03KT 4SM BR OVC015 FM062200 17004KT 6SM -SHRA BR SCT015 OVC050 FM070000 VRB03KT 4SM -SHRA BR OVC015 FM070800 34005KT 6SM BR OVC015 FM071000 VRB03KT 2SM BR BKN007
NOTAMs
Click for the latest NOTAMs
NOTAMs are issued by the DoD/FAA and will open in a separate window not controlled by AirNav.

 

 
 

Would you like to see your business listed on this page?

 If your business provides an interesting product or service to pilots, flight crews, aircraft, or users of the Balsdon Airport, you should consider listing it here.  To start the listing process, click on the button below
 
Add a business
 

Other Pages about Balsdon Airport

Update a link
 
Copyright © AirNav, LLC. All rights reserved. Privacy Policy  Contact